Impacts TAF Board INFO
FOR SITUATIONAL AWARENESS. NOT TO BE USED FOR FLIGHT PLANNING PURPOSES.
IDs:

KCLT - Charlotte/Douglas In, NC, US

Issued at 1730 UTC 21 Jun 2018
Updated at 1945 UTC 21 Jun 2018
Potential Impact None Slight Moderate High
Time1852Z 21/20Z 21/21Z 21/22Z 21/23Z 22/00Z 22/01Z 22/02Z 22/03Z 22/04Z 22/05Z 22/06Z 22/07Z 22/08Z>>
Type OBS PRVL PRVL
  [TEMP]  
PRVL
  [TEMP]  
PRVL
  [TEMP]  
PRVL
  [TEMP]  
PRVL PRVL PRVL PRVL PRVL PRVL PRVL PRVL
VIS 10 >6 >6
  [4]  
>6
  [4]  
>6
  [4]  
>6
  [4]  
>6 >6 >6 >6 >6 >6 >6 >6
CIG 150 70 70
  [25]  
70
  [25]  
70
  [25]  
70
  [25]  
60 60 250 250 250 250 250 250
Cover BKN BKN BKN
  [OVC]  
BKN
  [OVC]  
BKN
  [OVC]  
BKN
  [OVC]  
BKN BKN BKN BKN BKN BKN BKN BKN
FltCat VFR VFR VFR
  [MVFR]  
VFR
  [MVFR]  
VFR
  [MVFR]  
VFR
  [MVFR]  
VFR VFR VFR VFR VFR VFR VFR VFR
WX -- VCSH VCSH
  [-TSRA]  
VCSH
  [-TSRA]  
VCSH
  [-TSRA]  
VCSH
  [-TSRA]  
VCSH VCSH -- -- -- -- -- --
WDir VRB 250 250
[250]
250
[250]
250
[250]
250
[250]
220 220 220 220 220 220 220 220
WSpd 4 7 7
  [7]  
7
  [7]  
7
  [7]  
7
  [7]  
5 5 5 5 5 5 5 5
WGst -- -- --
  [--]  
--
  [--]  
--
  [--]  
--
  [--]  
-- -- -- -- -- -- -- --

Raw TAF
KCLT 211730Z 2118/2224 24005KT P6SM FEW050 BKN150
  FM212000 25007KT P6SM VCSH BKN070
  TEMPO 2121/2201 4SM -TSRA OVC025CB
  FM220100 22005KT P6SM VCSH BKN060
  FM220300 22005KT P6SM SCT060 BKN250
  FM222200 22009KT P6SM SCT200
  PROB30 2222/2224 4SM -TSRA BKN060CB


Raw METAR
KCLT 211852Z VRB04KT 10SM FEW050 BKN150 BKN200 32/21 A2983 RMK AO2 SLP091 T03220211
KCLT 211752Z VRB04KT 10SM FEW050 FEW100 BKN150 BKN200 32/20 A2985 RMK AO2 SLP098 T03220200 10328 20261 58010
KCLT 211652Z 23005KT 10SM FEW050 FEW100 BKN130 BKN250 31/20 A2987 RMK AO2 SLP103 T03110200

METAR Board
Radar Display
Forecast Discussion

FOR SITUATIONAL AWARENESS. NOT TO BE USED FOR FLIGHT PLANNING PURPOSES.